Latest Weather Observations for Kyabram

IDV60801

Issued at 7:32 pm EDT Thursday 19 January 2017 (issued every 30 minutes, with the page automatically refreshed every 10 minutes)

About weather observations | Map of weather stations | Latest weather observations for VIC | Other Formats
Station Details ID: 080091 Name: KYABRAM Lat: -36.34 Lon: 145.06 Height: 105.0 m
Data from the previous 72 hours. | See also: Recent months at Kyabram
Date/Time
EDT
Temp
°C
App
Temp
°C
Dew
Point
°C
Rel
Hum
%
Delta-T
°C
Wind Press
QNH
hPa
Press
MSL
hPa
Rain since
9am
mm
Dir  Spd
km/h
Gust
km/h
Spd
kts
Gust
kts
19/07:30pm 29.6 27.0 4.3 20 13.0 SSW 7 7 4 4 - - 0.0
19/07:00pm 30.9 29.0 3.0 17 14.2 SSW 2 7 1 4 - - 0.0
19/06:30pm 31.1 28.2 1.4 15 14.7 SSW 6 11 3 6 - - 0.0
19/06:00pm 31.6 28.9 3.6 17 14.4 SSW 7 13 4 7 - - 0.0
19/05:30pm 31.5 28.7 1.8 15 14.8 W 6 11 3 6 - - 0.0
19/05:00pm 31.3 28.0 2.5 16 14.5 SSW 9 13 5 7 - - 0.0
19/04:30pm 31.2 28.4 3.3 17 14.3 SW 7 11 4 6 - - 0.0
19/04:00pm 31.0 28.5 4.7 19 13.8 SW 7 13 4 7 - - 0.0
19/03:30pm 30.5 27.5 4.3 19 13.6 NW 9 15 5 8 - - 0.0
19/03:00pm 29.5 27.1 6.8 24 12.2 ESE 9 20 5 11 - - 0.0
19/02:30pm 29.6 27.9 7.5 25 12.0 WNW 6 13 3 7 - - 0.0
19/02:00pm 28.7 27.0 8.4 28 11.2 SE 7 13 4 7 - - 0.0
19/01:30pm 28.0 26.4 7.8 28 10.9 S 6 13 3 7 - - 0.0
19/01:00pm 27.0 25.8 9.4 33 9.7 W 6 19 3 10 - - 0.0
19/12:30pm 26.1 24.5 8.6 33 9.5 SSE 7 15 4 8 - - 0.0
19/12:00pm 25.0 23.4 8.9 36 8.7 ESE 7 17 4 9 - - 0.0
19/11:30am 24.6 22.7 9.0 37 8.5 SSE 9 17 5 9 - - 0.0
19/11:00am 22.9 20.1 7.1 36 8.2 SSE 11 17 6 9 - - 0.0
19/10:30am 21.1 17.8 6.6 39 7.4 SSE 13 20 7 11 - - 0.0
19/10:00am 20.1 17.2 6.5 41 6.9 S 11 17 6 9 - - 0.0
19/09:30am 19.2 16.7 6.7 44 6.3 S 9 17 5 9 - - 0.0
19/09:00am 18.0 14.9 7.1 49 5.5 SSE 13 20 7 11 - - 0.0
19/08:30am 16.0 12.7 6.4 53 4.7 S 13 26 7 14 - - 0.0
19/08:00am 15.3 12.2 7.1 58 4.1 SSE 13 20 7 11 - - 0.0
19/07:30am 13.6 10.5 7.2 65 3.1 SSE 13 24 7 13 - - 0.0
19/07:00am 11.9 9.5 7.0 72 2.4 S 9 13 5 7 - - 0.0
19/06:30am 11.0 8.9 6.7 75 2.0 S 7 13 4 7 - - 0.0
19/06:00am 11.4 8.5 6.5 72 2.3 S 11 20 6 11 - - 0.0
19/05:30am 11.2 8.6 6.3 72 2.3 S 9 13 5 7 - - 0.0
19/05:00am 11.4 8.4 5.9 69 2.6 S 11 17 6 9 - - 0.0
19/04:30am 11.5 8.4 5.6 67 2.7 S 11 17 6 9 - - 0.0
19/04:00am 11.5 8.5 5.8 68 2.7 S 11 17 6 9 - - 0.0
19/03:30am 11.7 8.3 6.0 68 2.7 S 13 19 7 10 - - 0.0
19/03:00am 11.6 8.6 6.1 69 2.6 S 11 17 6 9 - - 0.0
19/02:30am 12.0 9.1 6.3 68 2.7 S 11 17 6 9 - - 0.0
19/02:00am 12.8 9.1 6.2 64 3.1 S 15 28 8 15 - - 0.0
19/01:30am 12.9 9.1 6.0 63 3.3 S 15 20 8 11 - - 0.0
19/01:00am 13.3 10.0 6.2 62 3.4 S 13 17 7 9 - - 0.0
19/12:30am 13.7 10.4 6.3 61 3.6 S 13 26 7 14 - - 0.0
19/12:00am 14.4 10.7 6.3 58 3.9 SSW 15 24 8 13 - - 0.0
 
Date/Time
EDT
Temp
°C
App
Temp
°C
Dew
Point
°C
Rel
Hum
%
Delta-T
°C
Wind Press
QNH
hPa
Press
MSL
hPa
Rain since
9am
mm
Dir  Spd
km/h
Gust
km/h
Spd
kts
Gust
kts
18/11:30pm 15.1 11.4 6.4 56 4.2 SSW 15 22 8 12 - - 0.0
18/11:00pm 15.7 11.3 6.4 54 4.5 S 19 32 10 17 - - 0.0
18/10:30pm 16.2 12.3 7.2 55 4.5 S 17 26 9 14 - - 0.0
18/10:00pm 17.0 12.1 7.1 52 5.0 SSW 22 37 12 20 - - 0.0
18/09:30pm 17.3 12.9 6.5 49 5.4 SSW 19 28 10 15 - - 0.0
18/09:00pm 18.1 14.0 6.0 45 6.0 S 17 24 9 13 - - 0.0
18/08:30pm 19.1 14.3 4.8 39 6.9 S 19 32 10 17 - - 0.0
18/08:00pm 20.5 15.6 5.3 37 7.5 S 20 33 11 18 - - 0.0
18/07:30pm 21.8 16.9 5.3 34 8.2 S 20 32 11 17 - - 0.0
18/07:00pm 22.7 17.3 4.7 31 8.9 S 22 37 12 20 - - 0.0
18/06:30pm 23.5 17.5 5.4 31 9.2 S 26 43 14 23 - - 0.0
18/06:00pm 24.3 18.9 4.6 28 9.9 S 22 37 12 20 - - 0.0
18/05:30pm 25.5 20.8 6.2 29 10.0 S 20 35 11 19 - - 0.0
18/05:00pm 25.6 21.1 6.8 30 9.9 S 20 33 11 18 - - 0.0
18/04:30pm 25.5 21.0 7.1 31 9.7 S 20 33 11 18 - - 0.0
18/04:00pm 26.6 22.4 8.1 31 10.0 S 20 35 11 19 - - 0.0
18/03:30pm 26.1 22.0 7.7 31 9.8 S 19 28 10 15 - - 0.0
18/03:00pm 26.2 22.1 7.7 31 9.9 S 19 32 10 17 - - 0.0
18/02:30pm 24.9 21.3 8.4 35 8.9 S 17 28 9 15 - - 0.0
18/02:00pm 23.2 19.4 7.7 37 8.2 S 17 30 9 16 - - 0.0
18/01:30pm 23.3 20.1 10.0 43 7.3 S 17 26 9 14 - - 0.0
18/01:00pm 21.1 18.0 10.3 50 5.9 S 17 28 9 15 - - 0.0
18/12:30pm 20.4 16.9 10.8 54 5.3 S 20 37 11 20 - - 0.0
18/12:00pm 20.0 16.8 11.2 57 4.9 S 19 30 10 16 - - 0.0
18/11:30am 19.8 16.1 11.6 59 4.5 SSW 22 35 12 19 - - 0.0
18/11:00am 18.9 14.9 11.7 63 4.0 S 24 37 13 20 - - 0.0
18/10:30am 19.2 15.7 12.2 64 3.9 S 22 43 12 23 - - 0.0
18/10:00am 20.0 16.4 13.0 64 4.0 SSW 24 35 13 19 - - 0.0
18/09:30am 20.4 17.7 14.5 69 3.5 S 22 41 12 22 - - 0.0
18/09:00am 20.0 17.0 14.8 72 3.1 SSW 24 37 13 20 - - 0.0
18/08:30am 20.3 17.9 14.4 69 3.4 S 20 32 11 17 - - 0.0
18/08:00am 20.1 18.0 13.6 66 3.7 SSW 17 24 9 13 - - 0.0
18/07:30am 19.3 17.0 13.0 67 3.6 SSW 17 28 9 15 - - 0.0
18/07:00am 18.0 16.6 12.2 69 3.2 SW 11 20 6 11 - - 0.0
18/06:30am 17.7 16.5 11.7 68 3.3 WSW 9 15 5 8 - - 0.0
18/06:00am 16.8 17.2 11.3 70 3.0 CALM 0 0 0 0 - - 0.0
18/05:30am 18.1 17.4 11.4 65 3.7 SSW 6 7 3 4 - - 0.0
18/05:00am 18.7 17.8 11.3 62 4.1 S 7 9 4 5 - - 0.0
18/04:30am 19.8 18.5 11.3 58 4.7 S 9 13 5 7 - - 0.0
18/04:00am 19.3 17.5 10.8 58 4.6 S 11 19 6 10 - - 0.0
18/03:30am 19.2 16.8 11.5 61 4.2 SW 15 24 8 13 - - 0.0
18/03:00am 20.2 18.2 11.4 57 4.9 SSW 13 17 7 9 - - 0.0
18/02:30am 20.7 19.4 11.3 55 5.2 SSW 9 13 5 7 - - 0.0
18/02:00am 21.9 18.5 11.3 51 5.9 SSW 20 30 11 16 - - 0.0
18/01:30am 22.8 19.3 10.9 47 6.6 SSW 20 32 11 17 - - 0.0
18/01:00am 23.2 20.1 10.3 44 7.1 S 17 26 9 14 - - 0.0
18/12:30am 23.8 20.8 10.5 43 7.4 S 17 26 9 14 - - 0.0
18/12:00am 24.9 21.2 9.6 38 8.4 SSW 19 30 10 16 - - 0.0
 
Date/Time
EDT
Temp
°C
App
Temp
°C
Dew
Point
°C
Rel
Hum
%
Delta-T
°C
Wind Press
QNH
hPa
Press
MSL
hPa
Rain since
9am
mm
Dir  Spd
km/h
Gust
km/h
Spd
kts
Gust
kts
17/11:30pm 27.6 24.3 8.0 29 10.6 SSW 15 24 8 13 - - 0.0
17/11:00pm 28.3 24.5 7.5 27 11.2 SSW 17 26 9 14 - - 0.0
17/10:30pm 24.7 23.7 5.5 29 9.8 CALM 0 0 0 0 - - 0.0
17/10:00pm 26.6 26.4 9.0 33 9.7 CALM 0 0 0 0 - - 0.0
17/09:30pm 27.8 26.1 2.1 19 12.6 CALM 0 0 0 0 - - 0.0
17/09:00pm 29.9 28.3 2.2 17 13.8 CALM 0 0 0 0 - - 0.0
17/08:30pm 32.7 30.7 -0.4 12 16.1 CALM 0 0 0 0 - - 0.0
17/08:00pm 36.1 33.3 -3.3 8 18.7 NW 2 7 1 4 - - 0.0
17/07:30pm 38.7 35.9 -3.2 7 20.2 NW 2 11 1 6 - - 0.0
17/07:00pm 39.8 35.9 -4.5 6 21.1 NW 7 20 4 11 - - 0.0
17/06:30pm 40.5 36.7 -4.0 6 21.5 NNW 7 19 4 10 - - 0.0
17/06:00pm 41.5 37.5 -5.7 5 22.4 NW 7 46 4 25 - - 0.0
17/05:30pm 41.0 37.4 -3.6 6 21.7 WNW 6 15 3 8 - - 0.0
17/05:00pm 41.3 36.9 -5.8 5 22.3 NW 9 20 5 11 - - 0.0
17/04:30pm 41.5 37.4 -3.3 6 22.0 WNW 9 19 5 10 - - 0.0
17/04:00pm 40.4 37.0 -2.0 7 21.1 W 6 15 3 8 - - 0.0
17/03:30pm 40.7 36.0 -1.8 7 21.2 W 13 28 7 15 - - 0.0
17/03:00pm 40.9 37.6 0.2 8 21.0 W 7 17 4 9 - - 0.0
17/02:30pm 40.5 36.4 -0.1 8 20.8 W 11 26 6 14 - - 0.0
17/02:00pm 40.2 35.5 -2.1 7 21.0 NW 13 22 7 12 - - 0.0
17/01:30pm 39.0 33.5 -5.1 6 20.7 NW 15 28 8 15 - - 0.0
17/01:00pm 38.8 33.5 -3.2 7 20.3 WNW 15 24 8 13 - - 0.0
17/12:30pm 38.4 33.6 0.0 9 19.4 NNW 15 26 8 14 - - 0.0
17/12:00pm 37.3 33.1 1.9 11 18.3 NW 13 22 7 12 - - 0.0
17/11:30am 36.6 33.1 3.7 13 17.5 NNW 11 17 6 9 - - 0.0
17/11:00am 34.5 31.5 5.9 17 15.5 NNW 11 17 6 9 - - 0.0
17/10:30am 33.3 30.8 8.0 21 14.1 NNW 11 15 6 8 - - 0.0
17/10:00am 30.1 28.1 10.1 29 11.4 NNE 11 17 6 9 - - 0.0
17/09:30am 27.2 25.9 11.3 37 9.1 NNE 9 15 5 8 - - 0.0
17/09:00am 24.4 23.8 12.4 47 6.9 NE 7 13 4 7 - - 0.0
17/08:30am 22.5 23.3 12.7 54 5.6 CALM 0 0 0 0 - - 0.0
17/08:00am 21.3 21.2 12.2 56 5.1 ENE 4 9 2 5 - - 0.0
17/07:30am 20.9 21.3 11.3 54 5.3 CALM 0 0 0 0 - - 0.0
17/07:00am 19.0 19.6 12.0 64 3.9 CALM 0 0 0 0 - - 0.0
17/06:30am 17.8 18.0 10.4 62 4.0 CALM 0 0 0 0 - - 0.0
17/06:00am 18.6 18.4 10.4 59 4.4 NE 2 7 1 4 - - 0.0
17/05:30am 19.1 18.0 10.1 56 4.8 NNE 6 13 3 7 - - 0.0
17/05:00am 19.2 18.7 9.4 53 5.2 NE 2 6 1 3 - - 0.0
17/04:30am 19.5 18.6 9.1 51 5.5 NE 4 9 2 5 - - 0.0
17/04:00am 19.3 19.1 10.3 56 4.9 NE 2 9 1 5 - - 0.0
17/03:30am 18.7 18.6 9.5 55 4.9 CALM 0 6 0 3 - - 0.0
17/03:00am 17.6 18.0 11.4 67 3.4 CALM 0 0 0 0 - - 0.0
17/02:30am 17.9 18.3 11.2 65 3.7 CALM 0 0 0 0 - - 0.0
17/02:00am 19.0 19.4 11.3 61 4.2 CALM 0 0 0 0 - - 0.0
17/01:30am 19.3 19.7 11.1 59 4.5 CALM 0 0 0 0 - - 0.0
17/01:00am 21.7 21.6 9.6 46 6.5 CALM 0 6 0 3 - - 0.0
17/12:30am 21.5 21.6 10.0 48 6.3 CALM 0 7 0 4 - - 0.0
17/12:00am 22.6 21.6 8.7 41 7.4 NNE 4 11 2 6 - - 0.0
 
Date/Time
EDT
Temp
°C
App
Temp
°C
Dew
Point
°C
Rel
Hum
%
Delta-T
°C
Wind Press
QNH
hPa
Press
MSL
hPa
Rain since
9am
mm
Dir  Spd
km/h
Gust
km/h
Spd
kts
Gust
kts
16/11:30pm 21.8 21.5 10.0 47 6.4 NNE 2 9 1 5 - - 0.0
16/11:00pm 22.3 22.9 12.0 52 5.8 CALM 0 0 0 0 - - 0.0
16/10:30pm 23.4 24.0 11.8 48 6.6 CALM 0 0 0 0 - - 0.0
16/10:00pm 24.4 24.5 10.3 41 7.8 CALM 0 0 0 0 - - 0.0
16/09:30pm 24.9 25.7 12.5 46 7.2 CALM 0 0 0 0 - - 0.0
16/09:00pm 25.4 26.1 12.3 44 7.6 CALM 0 0 0 0 - - 0.0
16/08:30pm 28.0 28.4 11.1 35 9.7 CALM 0 0 0 0 - - 0.0
16/08:00pm 31.0 30.4 7.5 23 12.9 CALM 0 0 0 0 - - 0.0

Other Formats:

Comma delimited format used in spreadsheet applications
http://www.bom.gov.au/fwo/IDV60801/IDV60801.95833.axf

JavaScript Object Notation format (JSON) in row-major order
http://www.bom.gov.au/fwo/IDV60801/IDV60801.95833.json